createdAt,value
2022-10-17T00:04:17.892Z,3.40
2022-10-17T00:09:19.544Z,4.27
2022-10-17T00:14:21.342Z,3.60
2022-10-17T00:19:22.956Z,3.70
2022-10-17T00:24:24.716Z,4.10
2022-10-17T00:29:26.359Z,3.60
2022-10-17T00:34:28.957Z,3.80
2022-10-17T00:39:31.591Z,3.30
2022-10-17T00:44:33.280Z,3.63
2022-10-17T00:49:36.274Z,4.03
2022-10-17T00:54:39.979Z,3.47
2022-10-17T00:59:41.785Z,3.33
2022-10-17T01:04:45.449Z,3.03
2022-10-17T01:09:47.669Z,3.20
2022-10-17T01:15:02.810Z,3.27
2022-10-17T01:20:43.824Z,2.80
2022-10-17T01:26:02.324Z,3.10
2022-10-17T01:31:13.316Z,3.23
2022-10-17T01:36:37.936Z,3.27
2022-10-17T01:41:44.196Z,3.17
2022-10-17T01:46:54.329Z,3.27
2022-10-17T01:51:58.317Z,3.10
2022-10-17T01:57:01.421Z,3.00
2022-10-17T02:02:03.913Z,2.83
2022-10-17T02:07:09.349Z,3.07
2022-10-17T02:12:34.703Z,2.50
2022-10-17T02:17:45.239Z,2.50
2022-10-17T02:22:48.422Z,3.20
2022-10-17T02:27:58.746Z,2.70
2022-10-17T02:33:30.750Z,3.13
2022-10-17T02:38:32.380Z,2.90
2022-10-17T02:43:34.827Z,3.10
2022-10-17T02:48:44.300Z,3.03
2022-10-17T02:54:01.406Z,3.20
2022-10-17T02:59:03.138Z,2.60
2022-10-17T03:04:09.384Z,3.20
2022-10-17T03:09:11.041Z,3.03
2022-10-17T03:14:12.768Z,3.30
2022-10-17T03:19:14.926Z,3.30
2022-10-17T03:24:16.703Z,2.90
2022-10-17T03:29:19.296Z,3.53
2022-10-17T03:34:21.967Z,3.20
2022-10-17T03:39:23.874Z,3.30
2022-10-17T03:44:25.606Z,2.93
2022-10-17T03:49:27.396Z,3.10
2022-10-17T03:54:29.404Z,3.47
2022-10-17T03:59:31.232Z,3.40
2022-10-17T04:04:38.783Z,3.40
2022-10-17T04:09:40.511Z,3.50
2022-10-17T04:14:46.667Z,4.10
2022-10-17T04:19:49.803Z,3.77
2022-10-17T04:24:52.992Z,4.27
2022-10-17T04:30:20.779Z,4.00
2022-10-17T04:35:22.611Z,3.77
2022-10-17T04:40:34.630Z,3.60
2022-10-17T04:45:36.621Z,3.63
2022-10-17T04:50:40.415Z,4.47
2022-10-17T04:55:56.061Z,4.17
2022-10-17T05:00:57.872Z,5.10
2022-10-17T05:06:06.950Z,5.93
2022-10-17T05:11:22.435Z,7.43
2022-10-17T05:16:24.604Z,8.80
2022-10-17T05:21:26.842Z,9.00
2022-10-17T05:26:29.125Z,7.17
2022-10-17T05:31:31.162Z,7.10
2022-10-17T05:36:33.215Z,6.70
2022-10-17T05:41:36.394Z,5.20
2022-10-17T05:46:38.065Z,5.03
2022-10-17T05:56:51.719Z,6.00
2022-10-17T06:01:55.585Z,5.57
2022-10-17T06:06:57.407Z,5.40
2022-10-17T06:11:59.148Z,5.10
2022-10-17T06:17:01.303Z,4.93
2022-10-17T06:22:03.036Z,4.93
2022-10-17T06:27:10.870Z,5.00
2022-10-17T06:32:15.239Z,5.00
2022-10-17T06:37:20.294Z,4.87
2022-10-17T06:42:22.422Z,4.50
2022-10-17T06:47:44.380Z,4.30
2022-10-17T06:53:21.958Z,4.83
2022-10-17T06:58:23.801Z,4.07
2022-10-17T07:03:41.093Z,4.60
2022-10-17T07:08:44.476Z,5.60
2022-10-17T07:13:46.971Z,5.23
2022-10-17T07:18:50.497Z,5.10
2022-10-17T07:23:53.264Z,5.80
2022-10-17T07:28:55.823Z,5.67
2022-10-17T07:34:06.925Z,5.27
2022-10-17T07:39:08.649Z,6.10
2022-10-17T07:44:12.233Z,8.00
2022-10-17T07:49:20.664Z,6.77
2022-10-17T07:54:22.675Z,6.23
2022-10-17T07:59:24.437Z,7.10
2022-10-17T08:04:26.545Z,6.83
2022-10-17T08:09:28.181Z,6.40
2022-10-17T08:14:29.892Z,6.00
2022-10-17T08:19:31.538Z,5.30
2022-10-17T08:24:33.218Z,5.33
2022-10-17T08:29:34.912Z,5.00
2022-10-17T08:34:36.596Z,5.33
2022-10-17T08:39:38.308Z,5.20
2022-10-17T08:45:02.971Z,5.37
2022-10-17T08:50:07.045Z,4.93
2022-10-17T08:55:16.886Z,5.13
2022-10-17T09:00:19.989Z,6.53
2022-10-17T09:05:30.962Z,4.93
2022-10-17T09:10:49.418Z,5.30
2022-10-17T09:15:55.219Z,5.60
2022-10-17T09:21:18.828Z,5.43
2022-10-17T09:26:20.477Z,4.60
2022-10-17T09:31:23.870Z,4.67
2022-10-17T09:36:31.453Z,5.10
2022-10-17T09:41:52.552Z,4.60
2022-10-17T09:47:03.415Z,4.43
2022-10-17T09:52:06.871Z,3.90
2022-10-17T09:57:09.660Z,4.10
2022-10-17T10:02:22.067Z,4.30
2022-10-17T10:07:29.098Z,4.80
2022-10-17T10:12:35.687Z,3.77
2022-10-17T10:17:44.043Z,3.90
2022-10-17T10:22:45.661Z,4.00
2022-10-17T10:27:47.323Z,4.00
2022-10-17T10:32:49.075Z,4.27
2022-10-17T10:37:55.013Z,4.23
2022-10-17T10:43:00.250Z,3.60
2022-10-17T10:48:22.950Z,3.47
2022-10-17T10:53:47.268Z,3.60
2022-10-17T10:58:58.461Z,3.80
2022-10-17T11:04:33.334Z,3.50
2022-10-17T11:10:03.281Z,3.60
2022-10-17T11:15:14.018Z,4.33
2022-10-17T11:20:42.770Z,3.77
2022-10-17T11:25:44.426Z,3.63
2022-10-17T11:30:56.766Z,4.00
2022-10-17T11:36:04.564Z,3.57
2022-10-17T11:41:06.207Z,3.60
2022-10-17T11:46:23.822Z,3.47
2022-10-17T11:56:50.077Z,3.47
2022-10-17T12:01:57.491Z,3.23
2022-10-17T12:07:11.883Z,3.27
2022-10-17T12:12:30.717Z,3.30
2022-10-17T12:17:40.379Z,3.70
2022-10-17T12:22:48.382Z,3.47
2022-10-17T12:27:50.409Z,3.50
2022-10-17T12:33:22.136Z,3.50
2022-10-17T12:38:25.278Z,3.60
2022-10-17T12:43:39.719Z,3.20
2022-10-17T12:48:44.227Z,3.23
2022-10-17T12:54:01.830Z,3.57
2022-10-17T12:59:24.263Z,2.93
2022-10-17T13:04:26.101Z,3.20
2022-10-17T13:09:32.783Z,3.43
2022-10-17T13:14:34.470Z,3.33
2022-10-17T13:19:44.286Z,2.90
2022-10-17T13:24:46.137Z,3.20
2022-10-17T13:29:47.804Z,3.97
2022-10-17T13:35:13.296Z,3.40
2022-10-17T13:45:45.940Z,3.40
2022-10-17T13:50:50.138Z,3.30
2022-10-17T13:56:23.210Z,3.90
2022-10-17T14:01:28.399Z,3.70
2022-10-17T14:06:30.135Z,3.20
2022-10-17T14:11:42.623Z,3.87
2022-10-17T14:16:44.324Z,4.30
2022-10-17T14:21:48.653Z,4.50
2022-10-17T14:26:51.850Z,3.90
2022-10-17T14:32:05.238Z,3.33
2022-10-17T14:37:22.071Z,3.97
2022-10-17T14:42:23.699Z,5.20
2022-10-17T14:53:12.640Z,3.87
2022-10-17T14:58:27.594Z,4.93
2022-10-17T15:03:29.283Z,4.50
2022-10-17T15:08:31.101Z,7.17
2022-10-17T15:13:39.217Z,4.03
2022-10-17T15:18:43.884Z,7.17
2022-10-17T15:23:45.564Z,4.67
2022-10-17T15:28:47.632Z,4.80
2022-10-17T15:33:49.667Z,4.00
2022-10-17T15:38:53.162Z,4.37
2022-10-17T15:43:54.848Z,4.20
2022-10-17T15:48:57.286Z,4.30
2022-10-17T15:54:01.460Z,4.73
2022-10-17T15:59:04.584Z,4.40
2022-10-17T16:04:06.377Z,4.70
2022-10-17T16:09:08.427Z,4.30
2022-10-17T16:14:14.612Z,4.70
2022-10-17T16:19:16.846Z,4.50
2022-10-17T16:24:18.600Z,4.93
2022-10-17T16:29:20.325Z,4.70
2022-10-17T16:34:21.938Z,4.80
2022-10-17T16:39:23.613Z,5.00
2022-10-17T16:44:25.407Z,5.40
2022-10-17T16:49:27.031Z,5.00
2022-10-17T16:54:29.440Z,5.07
2022-10-17T16:59:31.087Z,4.70
2022-10-17T17:04:32.707Z,4.67
2022-10-17T17:09:34.333Z,5.00
2022-10-17T17:14:35.992Z,5.40
2022-10-17T17:19:37.637Z,5.43
2022-10-17T17:24:39.294Z,5.50
2022-10-17T17:29:40.902Z,5.23
2022-10-17T17:34:42.528Z,5.57
2022-10-17T17:39:44.237Z,5.50
2022-10-17T17:44:45.925Z,5.90
2022-10-17T17:49:47.593Z,6.03
2022-10-17T17:54:49.221Z,6.27
2022-10-17T17:59:52.135Z,6.10
2022-10-17T18:04:53.776Z,6.00
2022-10-17T18:09:56.891Z,6.67
2022-10-17T18:14:58.586Z,6.77
2022-10-17T18:20:00.229Z,6.40
2022-10-17T18:25:01.993Z,6.97
2022-10-17T18:30:04.265Z,7.20
2022-10-17T18:35:06.267Z,7.40
2022-10-17T18:40:08.479Z,7.77
2022-10-17T18:45:11.281Z,7.67
2022-10-17T18:50:14.107Z,8.00
2022-10-17T18:55:19.576Z,9.60
2022-10-17T19:00:21.238Z,8.30
2022-10-17T19:05:23.036Z,9.30
2022-10-17T19:10:25.662Z,9.10
2022-10-17T19:15:27.459Z,9.40
2022-10-17T19:20:29.200Z,9.60
2022-10-17T19:25:30.910Z,8.47
2022-10-17T19:30:32.741Z,10.00
2022-10-17T19:35:34.842Z,10.33
2022-10-17T19:40:40.563Z,10.40
2022-10-17T19:45:42.368Z,11.40
2022-10-17T19:50:44.494Z,11.33
2022-10-17T19:55:46.165Z,12.20
2022-10-17T20:00:52.425Z,11.70
2022-10-17T20:05:54.111Z,11.97
2022-10-17T20:10:55.746Z,11.93
2022-10-17T20:15:58.032Z,13.67
2022-10-17T20:21:08.176Z,13.47
2022-10-17T20:26:26.005Z,12.97
2022-10-17T20:31:35.285Z,12.97
2022-10-17T20:36:37.482Z,13.23
2022-10-17T20:41:39.882Z,13.60
2022-10-17T20:46:52.747Z,13.93
2022-10-17T20:52:02.198Z,12.77
2022-10-17T20:57:05.027Z,13.03
2022-10-17T21:02:06.874Z,13.90
2022-10-17T21:07:08.523Z,14.97
2022-10-17T21:12:10.247Z,15.10
2022-10-17T21:17:15.763Z,15.83
2022-10-17T21:22:17.465Z,15.13
2022-10-17T21:27:19.301Z,16.07
2022-10-17T21:32:33.376Z,16.50
2022-10-17T21:37:42.730Z,14.67
2022-10-17T21:42:44.405Z,16.60
2022-10-17T21:48:11.237Z,16.50
2022-10-17T21:53:07.678Z,16.33
2022-10-17T21:58:12.289Z,16.60
2022-10-17T22:03:15.135Z,16.40
2022-10-17T22:08:16.807Z,17.30
2022-10-17T22:13:18.472Z,17.87
2022-10-17T22:18:20.284Z,17.73
2022-10-17T22:23:21.959Z,16.40
2022-10-17T22:28:23.809Z,16.67
2022-10-17T22:33:25.504Z,19.13
2022-10-17T22:38:27.177Z,18.03
2022-10-17T22:43:28.876Z,18.47
2022-10-17T22:48:30.740Z,19.97
2022-10-17T22:53:32.451Z,17.87
2022-10-17T22:58:34.346Z,20.00
2022-10-17T23:03:36.096Z,19.50
2022-10-17T23:08:37.717Z,18.80
2022-10-17T23:13:40.695Z,19.70
2022-10-17T23:18:43.574Z,20.57
2022-10-17T23:23:45.206Z,19.07
2022-10-17T23:28:46.917Z,19.07
2022-10-17T23:33:49.172Z,18.20
2022-10-17T23:38:52.718Z,17.43
2022-10-17T23:43:56.728Z,18.20
2022-10-17T23:48:58.369Z,18.10
2022-10-17T23:53:59.997Z,17.83
2022-10-17T23:59:01.686Z,19.57
